createdAt,value
2022-12-18T00:01:39.442Z,25.60
2022-12-18T00:04:07.672Z,25.59
2022-12-18T00:06:36.358Z,25.57
2022-12-18T00:09:04.420Z,25.57
2022-12-18T00:11:32.509Z,25.55
2022-12-18T00:14:00.573Z,25.55
2022-12-18T00:16:29.412Z,25.53
2022-12-18T00:19:01.068Z,25.52
2022-12-18T00:21:29.759Z,25.51
2022-12-18T00:23:57.414Z,25.50
2022-12-18T00:26:30.542Z,25.49
2022-12-18T00:29:01.460Z,25.51
2022-12-18T00:31:29.167Z,25.47
2022-12-18T00:33:56.588Z,25.47
2022-12-18T00:36:26.351Z,25.49
2022-12-18T00:38:54.839Z,25.46
2022-12-18T00:41:21.713Z,25.46
2022-12-18T00:43:48.422Z,25.47
2022-12-18T00:46:15.244Z,25.46
2022-12-18T00:48:42.048Z,25.46
2022-12-18T00:51:08.759Z,25.47
2022-12-18T00:53:35.789Z,25.46
2022-12-18T00:56:02.747Z,25.46
2022-12-18T00:58:29.474Z,25.46
2022-12-18T01:00:56.278Z,25.47
2022-12-18T01:03:23.062Z,25.47
2022-12-18T01:05:49.731Z,25.47
2022-12-18T01:08:16.453Z,25.48
2022-12-18T01:10:43.281Z,25.47
2022-12-18T01:13:10.000Z,25.48
2022-12-18T01:15:37.071Z,25.48
2022-12-18T01:18:07.524Z,25.48
2022-12-18T01:20:34.166Z,25.37
2022-12-18T01:23:00.879Z,25.49
2022-12-18T01:25:27.616Z,25.49
2022-12-18T01:27:54.358Z,25.49
2022-12-18T01:30:21.248Z,25.49
2022-12-18T01:32:47.961Z,25.50
2022-12-18T01:35:14.709Z,25.49
2022-12-18T01:37:41.413Z,25.48
2022-12-18T01:40:08.872Z,25.48
2022-12-18T01:42:35.739Z,25.47
2022-12-18T01:45:17.748Z,25.46
2022-12-18T01:47:51.986Z,25.47
2022-12-18T01:50:18.755Z,25.46
2022-12-18T01:52:52.623Z,25.47
2022-12-18T01:55:23.288Z,25.46
2022-12-18T01:57:55.351Z,25.47
2022-12-18T02:00:23.653Z,25.46
2022-12-18T02:02:50.779Z,25.47
2022-12-18T02:05:43.690Z,25.47
2022-12-18T02:08:31.882Z,25.46
2022-12-18T02:11:45.810Z,25.46
2022-12-18T02:14:47.515Z,25.48
2022-12-18T02:17:47.774Z,25.47
2022-12-18T02:20:37.609Z,25.51
2022-12-18T02:23:22.627Z,25.49
2022-12-18T02:26:10.820Z,25.52
2022-12-18T02:28:44.105Z,25.53
2022-12-18T02:31:15.797Z,25.53
2022-12-18T02:33:45.836Z,25.53
2022-12-18T02:36:14.409Z,25.54
2022-12-18T02:38:43.477Z,25.53
2022-12-18T02:41:11.355Z,25.55
2022-12-18T02:43:38.391Z,25.54
2022-12-18T02:46:30.973Z,25.53
2022-12-18T02:49:12.823Z,25.53
2022-12-18T02:51:48.557Z,25.56
2022-12-18T02:54:28.153Z,25.56
2022-12-18T02:57:04.656Z,25.56
2022-12-18T02:59:45.803Z,25.57
2022-12-18T03:02:27.955Z,25.57
2022-12-18T03:05:06.362Z,25.57
2022-12-18T03:08:25.175Z,25.55
2022-12-18T03:11:03.676Z,25.57
2022-12-18T03:13:37.533Z,25.59
2022-12-18T03:16:08.651Z,25.58
2022-12-18T03:18:43.715Z,25.58
2022-12-18T03:21:12.469Z,25.58
2022-12-18T03:23:48.553Z,25.57
2022-12-18T03:26:20.108Z,25.58
2022-12-18T03:28:52.244Z,25.59
2022-12-18T03:31:21.361Z,25.59
2022-12-18T03:33:56.853Z,25.58
2022-12-18T03:36:24.514Z,25.59
2022-12-18T03:38:52.395Z,25.58
2022-12-18T03:41:43.199Z,25.58
2022-12-18T03:44:14.127Z,25.56
2022-12-18T03:46:56.644Z,25.58
2022-12-18T03:49:36.759Z,25.56
2022-12-18T03:52:09.481Z,25.56
2022-12-18T03:54:37.607Z,25.56
2022-12-18T03:57:12.927Z,25.57
2022-12-18T03:59:41.353Z,25.56
2022-12-18T04:02:09.547Z,25.56
2022-12-18T04:04:40.598Z,25.57
2022-12-18T04:07:08.271Z,25.56
2022-12-18T04:09:36.847Z,25.55
2022-12-18T04:12:03.903Z,25.55
2022-12-18T04:14:30.554Z,25.55
2022-12-18T04:16:57.211Z,25.54
2022-12-18T04:19:23.897Z,25.55
2022-12-18T04:21:50.605Z,25.55
2022-12-18T04:24:17.923Z,25.55
2022-12-18T04:26:44.609Z,25.56
2022-12-18T04:29:11.501Z,25.56
2022-12-18T04:31:38.426Z,25.57
2022-12-18T04:34:05.189Z,25.56
2022-12-18T04:36:31.928Z,25.56
2022-12-18T04:38:58.729Z,25.56
2022-12-18T04:41:25.447Z,25.55
2022-12-18T04:43:52.140Z,25.55
2022-12-18T04:46:19.032Z,25.54
2022-12-18T04:48:47.200Z,25.56
2022-12-18T04:51:14.075Z,25.55
2022-12-18T04:53:41.157Z,25.54
2022-12-18T04:56:14.153Z,25.55
2022-12-18T04:58:42.217Z,25.53
2022-12-18T05:01:09.591Z,25.54
2022-12-18T05:03:37.843Z,25.53
2022-12-18T05:06:06.045Z,25.52
2022-12-18T05:08:33.699Z,25.52
2022-12-18T05:11:03.180Z,25.52
2022-12-18T05:13:31.171Z,25.51
2022-12-18T05:15:58.484Z,25.51
2022-12-18T05:18:25.859Z,25.50
2022-12-18T05:20:54.443Z,25.50
2022-12-18T05:23:22.926Z,25.52
2022-12-18T05:25:57.628Z,25.52
2022-12-18T05:28:26.434Z,25.51
2022-12-18T05:30:55.208Z,25.51
2022-12-18T05:33:23.989Z,25.52
2022-12-18T05:35:55.419Z,25.53
2022-12-18T05:38:23.220Z,25.52
2022-12-18T05:40:51.327Z,25.52
2022-12-18T05:43:21.435Z,25.53
2022-12-18T05:45:48.958Z,25.46
2022-12-18T05:48:16.405Z,25.58
2022-12-18T05:50:44.872Z,25.63
2022-12-18T05:53:11.977Z,25.65
2022-12-18T05:55:41.127Z,25.65
2022-12-18T05:58:10.074Z,25.65
2022-12-18T06:00:39.734Z,25.65
2022-12-18T06:03:07.802Z,25.64
2022-12-18T06:05:43.763Z,25.64
2022-12-18T06:08:11.484Z,25.61
2022-12-18T06:10:38.585Z,25.60
2022-12-18T06:13:24.103Z,25.56
2022-12-18T06:15:51.142Z,25.56
2022-12-18T06:18:17.996Z,25.54
2022-12-18T06:20:45.219Z,25.53
2022-12-18T06:23:11.984Z,25.51
2022-12-18T06:25:40.403Z,25.50
2022-12-18T06:28:07.241Z,25.48
2022-12-18T06:30:34.168Z,25.49
2022-12-18T06:33:00.884Z,25.48
2022-12-18T06:35:27.595Z,25.47
2022-12-18T06:37:54.377Z,25.47
2022-12-18T06:40:22.224Z,25.47
2022-12-18T06:42:49.346Z,25.47
2022-12-18T06:45:16.847Z,25.46
2022-12-18T06:47:43.833Z,25.45
2022-12-18T06:50:11.095Z,25.45
2022-12-18T06:52:38.108Z,25.45
2022-12-18T06:55:05.832Z,25.43
2022-12-18T06:57:35.419Z,25.45
2022-12-18T07:00:02.204Z,25.42
2022-12-18T07:02:29.072Z,25.44
2022-12-18T07:04:55.787Z,25.45
2022-12-18T07:07:22.708Z,25.45
2022-12-18T07:09:51.180Z,25.46
2022-12-18T07:12:18.400Z,25.46
2022-12-18T07:14:45.209Z,25.46
2022-12-18T07:17:11.921Z,25.46
2022-12-18T07:19:38.683Z,25.47
2022-12-18T07:22:05.413Z,25.47
2022-12-18T07:24:34.387Z,25.47
2022-12-18T07:27:01.956Z,25.47
2022-12-18T07:29:28.800Z,25.47
2022-12-18T07:31:55.583Z,25.47
2022-12-18T07:34:22.467Z,25.47
2022-12-18T07:36:49.500Z,25.46
2022-12-18T07:42:00.491Z,25.44
2022-12-18T07:44:27.198Z,25.45
2022-12-18T07:46:53.878Z,25.45
2022-12-18T07:49:20.616Z,25.46
2022-12-18T07:51:47.403Z,25.46
2022-12-18T07:54:14.155Z,25.46
2022-12-18T07:56:41.177Z,25.48
2022-12-18T07:59:07.884Z,25.49
2022-12-18T08:01:35.091Z,25.50
2022-12-18T08:04:01.926Z,25.50
2022-12-18T08:06:28.595Z,25.50
2022-12-18T08:08:56.850Z,25.51
2022-12-18T08:11:26.040Z,25.51
2022-12-18T08:13:53.253Z,25.50
2022-12-18T08:16:20.892Z,25.50
2022-12-18T08:18:48.642Z,25.48
2022-12-18T08:21:20.438Z,25.48
2022-12-18T08:23:48.597Z,25.45
2022-12-18T08:26:16.526Z,25.46
2022-12-18T08:28:43.500Z,25.46
2022-12-18T08:31:10.806Z,25.47
2022-12-18T08:33:39.418Z,25.49
2022-12-18T08:36:07.059Z,25.49
2022-12-18T08:38:34.847Z,25.53
2022-12-18T08:41:02.289Z,25.56
2022-12-18T08:43:30.220Z,25.57
2022-12-18T08:45:58.021Z,25.56
2022-12-18T08:48:24.850Z,25.54
2022-12-18T08:50:58.692Z,25.51
2022-12-18T08:53:32.779Z,25.47
2022-12-18T08:56:02.371Z,25.42
2022-12-18T08:58:29.161Z,25.39
2022-12-18T09:01:00.326Z,25.32
2022-12-18T09:03:27.045Z,25.31
2022-12-18T09:05:53.746Z,25.29
2022-12-18T09:08:20.542Z,25.26
2022-12-18T09:10:50.470Z,25.25
2022-12-18T09:13:18.113Z,25.23
2022-12-18T09:15:47.395Z,25.20
2022-12-18T09:18:15.646Z,25.18
2022-12-18T09:20:42.587Z,25.18
2022-12-18T09:23:12.911Z,25.17
2022-12-18T09:25:40.008Z,25.03
2022-12-18T09:28:15.163Z,25.10
2022-12-18T09:30:45.043Z,25.07
2022-12-18T09:33:11.796Z,25.00
2022-12-18T09:35:43.877Z,24.98
2022-12-18T09:38:19.574Z,24.97
2022-12-18T09:40:50.328Z,24.94
2022-12-18T09:43:40.965Z,24.93
2022-12-18T09:46:09.255Z,24.80
2022-12-18T09:48:46.217Z,24.90
2022-12-18T09:51:20.898Z,24.90
2022-12-18T09:54:00.553Z,24.88
2022-12-18T09:56:31.695Z,24.87
2022-12-18T09:58:59.578Z,24.88
2022-12-18T10:01:37.674Z,24.87
2022-12-18T10:04:10.655Z,24.87
2022-12-18T10:06:47.298Z,24.88
2022-12-18T10:09:44.377Z,24.87
2022-12-18T10:12:47.220Z,24.85
2022-12-18T10:15:30.813Z,24.84
2022-12-18T10:18:41.321Z,24.81
2022-12-18T10:21:13.369Z,24.71
2022-12-18T10:24:12.326Z,24.78
2022-12-18T10:26:39.622Z,24.73
2022-12-18T10:29:14.229Z,24.70
2022-12-18T10:31:41.331Z,24.65
2022-12-18T10:34:26.181Z,24.60
2022-12-18T10:36:52.855Z,24.58
2022-12-18T10:39:25.608Z,24.57
2022-12-18T10:41:52.361Z,24.54
2022-12-18T10:44:24.031Z,24.51
2022-12-18T10:46:55.277Z,24.48
2022-12-18T10:49:31.403Z,24.46
2022-12-18T10:52:43.458Z,24.43
2022-12-18T10:55:18.644Z,24.42
2022-12-18T10:57:45.908Z,24.41
2022-12-18T11:00:26.196Z,24.40
2022-12-18T11:02:53.616Z,24.31
2022-12-18T11:05:46.951Z,24.37
2022-12-18T11:08:22.435Z,24.38
2022-12-18T11:10:50.347Z,24.39
2022-12-18T11:13:21.829Z,24.38
2022-12-18T11:15:49.661Z,24.38
2022-12-18T11:18:26.153Z,24.38
2022-12-18T11:20:58.639Z,24.39
2022-12-18T11:23:27.032Z,24.37
2022-12-18T11:25:59.602Z,24.36
2022-12-18T11:28:27.822Z,24.36
2022-12-18T11:31:28.144Z,24.33
2022-12-18T11:34:31.268Z,24.32
2022-12-18T11:37:01.986Z,24.35
2022-12-18T11:39:38.438Z,24.33
2022-12-18T11:42:18.327Z,24.32
2022-12-18T11:45:16.597Z,24.30
2022-12-18T11:48:11.089Z,24.30
2022-12-18T11:50:37.671Z,24.33
2022-12-18T11:53:06.509Z,24.33
2022-12-18T11:55:54.593Z,24.32
2022-12-18T11:58:39.059Z,24.34
2022-12-18T12:01:20.724Z,24.32
2022-12-18T12:04:02.264Z,24.32
2022-12-18T12:06:47.403Z,24.27
2022-12-18T12:09:29.750Z,24.29
2022-12-18T12:12:24.129Z,24.28
2022-12-18T12:15:14.205Z,24.26
2022-12-18T12:18:14.127Z,24.28
2022-12-18T12:20:49.124Z,24.28
2022-12-18T12:23:42.444Z,24.29
2022-12-18T12:26:42.730Z,24.30
2022-12-18T12:29:21.724Z,24.30
2022-12-18T12:32:18.634Z,24.31
2022-12-18T12:35:09.476Z,24.33
2022-12-18T12:37:45.594Z,24.34
2022-12-18T12:43:25.291Z,24.37
2022-12-18T12:45:57.281Z,24.38
2022-12-18T12:48:46.145Z,24.39
2022-12-18T12:51:42.474Z,24.39
2022-12-18T12:54:20.771Z,24.39
2022-12-18T12:56:58.620Z,24.38
2022-12-18T12:59:31.546Z,24.36
2022-12-18T13:02:21.843Z,24.39
2022-12-18T13:05:02.937Z,24.39
2022-12-18T13:07:46.839Z,24.30
2022-12-18T13:10:19.719Z,24.40
2022-12-18T13:12:57.914Z,24.40
2022-12-18T13:15:31.625Z,24.40
2022-12-18T13:18:09.167Z,24.39
2022-12-18T13:20:55.222Z,24.39
2022-12-18T13:23:26.566Z,24.41
2022-12-18T13:26:08.426Z,24.41
2022-12-18T13:28:54.154Z,24.42
2022-12-18T13:31:42.395Z,24.42
2022-12-18T13:34:26.185Z,24.46
2022-12-18T13:36:58.361Z,24.48
2022-12-18T13:42:19.894Z,24.50
2022-12-18T13:44:48.008Z,24.51
2022-12-18T13:47:34.567Z,24.50
2022-12-18T13:50:10.143Z,24.52
2022-12-18T13:52:40.414Z,24.54
2022-12-18T13:55:17.417Z,24.53
2022-12-18T13:57:44.661Z,24.52
2022-12-18T14:00:23.571Z,24.52
2022-12-18T14:02:51.220Z,24.51
2022-12-18T14:05:30.033Z,24.51
